Time;durP1;ratioP1;P1;durP2;ratioP2;P2;SDS_P1;SDS_P2;PMS_P1;PMS_P2;Temp;Humidity;BMP_temperature;BMP_pressure;BME280_temperature;BME280_humidity;BME280_pressure;Samples;Min_cycle;Max_cycle;Signal;HPM_P1;HPM_P2
2023/12/22 00:00:17;;;;;;;3.70;3.40;;;;;;;;;;1021060;28;20020;-75
2023/12/22 00:00:48;;;;;;;10.35;6.07;;;;;;;;;;1025623;28;20118;-75
2023/12/22 00:01:19;;;;;;;10.45;6.10;;;;;;;;;;1025940;28;20035;-75
2023/12/22 00:01:49;;;;;;;7.82;5.20;;;;;;;;;;1025940;28;20031;-75
2023/12/22 00:02:20;;;;;;;7.85;7.03;;;;;;;;;;1025879;28;20065;-76
2023/12/22 00:02:50;;;;;;;6.85;6.25;;;;;;;;;;1026707;28;20031;-76
2023/12/22 00:03:21;;;;;;;4.72;4.32;;;;;;;;;;1025751;28;20472;-76
2023/12/22 00:03:51;;;;;;;8.05;6.72;;;;;;;;;;1025296;28;20027;-75
2023/12/22 00:04:22;;;;;;;6.43;5.20;;;;;;;;;;1029995;28;20076;-75
2023/12/22 00:04:52;;;;;;;6.28;5.72;;;;;;;;;;1025902;28;20093;-75
2023/12/22 00:05:23;;;;;;;7.25;4.47;;;;;;;;;;1029655;28;20506;-75
2023/12/22 00:05:53;;;;;;;8.13;6.85;;;;;;;;;;1029623;28;20034;-75
2023/12/22 00:06:23;;;;;;;5.95;5.45;;;;;;;;;;1026182;28;20030;-75
2023/12/22 00:06:54;;;;;;;9.80;8.98;;;;;;;;;;1021380;29;20027;-75
2023/12/22 00:07:25;;;;;;;3.88;3.00;;;;;;;;;;1020550;29;20019;-75
2023/12/22 00:07:55;;;;;;;3.17;2.97;;;;;;;;;;1022913;29;20062;-75
2023/12/22 00:08:26;;;;;;;6.40;5.82;;;;;;;;;;1022129;29;20059;-76
2023/12/22 00:08:56;;;;;;;3.65;3.42;;;;;;;;;;1021680;29;20075;-77
2023/12/22 00:09:27;;;;;;;9.27;5.63;;;;;;;;;;1022149;29;20031;-77
2023/12/22 00:09:57;;;;;;;12.35;5.20;;;;;;;;;;1021665;29;20453;-76
2023/12/22 00:10:28;;;;;;;10.68;4.70;;;;;;;;;;1025796;28;20494;-75
2023/12/22 00:10:59;;;;;;;7.53;6.78;;;;;;;;;;1025587;28;20121;-77
2023/12/22 00:11:29;;;;;;;9.30;4.90;;;;;;;;;;1026132;28;20034;-76
2023/12/22 00:11:59;;;;;;;5.68;5.28;;;;;;;;;;1025874;28;20034;-76
2023/12/22 00:12:30;;;;;;;6.53;4.75;;;;;;;;;;1025717;28;20026;-77
2023/12/22 00:13:00;;;;;;;5.22;4.30;;;;;;;;;;1026305;28;20030;-76
2023/12/22 00:13:33;;;;;;;10.30;6.70;;;;;;;;;;1024655;28;20050;-77
2023/12/22 00:14:03;;;;;;;5.47;4.93;;;;;;;;;;1025902;28;20056;-75
2023/12/22 00:14:33;;;;;;;7.68;6.05;;;;;;;;;;1025687;28;20526;-76
2023/12/22 00:15:05;;;;;;;6.60;5.97;;;;;;;;;;1026161;28;20085;-76
2023/12/22 00:15:35;;;;;;;6.55;5.93;;;;;;;;;;1029527;28;20109;-76
2023/12/22 00:16:05;;;;;;;20.92;8.77;;;;;;;;;;1029785;28;20027;-76
2023/12/22 00:16:37;;;;;;;3.40;3.17;;;;;;;;;;1029703;28;20503;-76
2023/12/22 00:17:08;;;;;;;2.78;2.58;;;;;;;;;;1026140;28;20114;-76
2023/12/22 00:17:38;;;;;;;5.25;4.20;;;;;;;;;;1026166;28;20027;-77
2023/12/22 00:18:09;;;;;;;2.53;2.42;;;;;;;;;;1024813;28;20057;-77
2023/12/22 00:18:39;;;;;;;4.65;3.25;;;;;;;;;;1026142;28;20097;-75
2023/12/22 00:19:10;;;;;;;1.55;1.20;;;;;;;;;;1026137;28;20039;-75
2023/12/22 00:19:40;;;;;;;6.03;5.28;;;;;;;;;;1026169;28;20019;-76
2023/12/22 00:20:13;;;;;;;2.38;2.08;;;;;;;;;;1026106;28;20455;-76
2023/12/22 00:20:43;;;;;;;9.88;1.90;;;;;;;;;;1025845;28;20034;-77
2023/12/22 00:21:14;;;;;;;3.05;2.83;;;;;;;;;;1026279;28;20438;-77
2023/12/22 00:21:44;;;;;;;1.85;1.73;;;;;;;;;;1027950;28;20498;-74
2023/12/22 00:22:14;;;;;;;1.40;1.02;;;;;;;;;;1027873;28;20027;-76
2023/12/22 00:22:45;;;;;;;5.70;5.22;;;;;;;;;;1023692;29;20078;-75
2023/12/22 00:23:15;;;;;;;9.30;6.97;;;;;;;;;;1026122;28;20033;-76
2023/12/22 00:23:46;;;;;;;5.10;4.20;;;;;;;;;;1024828;28;20023;-75
2023/12/22 00:24:17;;;;;;;3.20;2.90;;;;;;;;;;1024810;28;20027;-76
2023/12/22 00:24:47;;;;;;;7.55;6.80;;;;;;;;;;1026143;28;20117;-76
2023/12/22 00:25:17;;;;;;;5.70;5.28;;;;;;;;;;1025809;28;20144;-77
2023/12/22 00:25:48;;;;;;;5.53;5.03;;;;;;;;;;1025586;28;20033;-76
2023/12/22 00:26:18;;;;;;;6.38;3.97;;;;;;;;;;1024868;28;20118;-75
2023/12/22 00:26:49;;;;;;;5.18;4.80;;;;;;;;;;1025696;28;20033;-75
2023/12/22 00:27:19;;;;;;;3.03;2.85;;;;;;;;;;1025820;28;20023;-74
2023/12/22 00:27:49;;;;;;;5.13;4.53;;;;;;;;;;1029803;28;20047;-75
2023/12/22 00:28:20;;;;;;;3.58;3.35;;;;;;;;;;1026067;28;20391;-75
2023/12/22 00:28:50;;;;;;;2.70;2.50;;;;;;;;;;1029741;28;20038;-75
2023/12/22 00:29:21;;;;;;;6.20;4.43;;;;;;;;;;1029571;28;20045;-75
2023/12/22 00:29:51;;;;;;;3.88;3.63;;;;;;;;;;1029733;28;20470;-74
2023/12/22 00:30:24;;;;;;;3.72;2.55;;;;;;;;;;1029533;28;20538;-74
2023/12/22 00:30:54;;;;;;;5.60;5.10;;;;;;;;;;1025594;28;20023;-75
2023/12/22 00:31:24;;;;;;;7.32;6.68;;;;;;;;;;1025155;28;20027;-75
2023/12/22 00:31:55;;;;;;;6.68;6.13;;;;;;;;;;1025768;28;20031;-76
2023/12/22 00:32:26;;;;;;;7.70;6.28;;;;;;;;;;1021966;29;20038;-75
2023/12/22 00:32:56;;;;;;;6.60;6.18;;;;;;;;;;1021682;29;20030;-75
2023/12/22 00:33:26;;;;;;;4.28;3.88;;;;;;;;;;1021828;29;20026;-75
2023/12/22 00:33:57;;;;;;;6.97;6.40;;;;;;;;;;1021788;28;20019;-76
2023/12/22 00:34:27;;;;;;;4.50;3.00;;;;;;;;;;1025808;28;20023;-75
2023/12/22 00:34:58;;;;;;;6.35;5.85;;;;;;;;;;1025667;28;20030;-75
2023/12/22 00:35:28;;;;;;;4.72;3.20;;;;;;;;;;1021309;28;20024;-75
2023/12/22 00:35:59;;;;;;;4.20;3.90;;;;;;;;;;1025099;28;20043;-75
2023/12/22 00:36:29;;;;;;;6.93;6.32;;;;;;;;;;1021490;29;20427;-75
2023/12/22 00:37:00;;;;;;;12.32;6.00;;;;;;;;;;1021852;28;20491;-75
2023/12/22 00:37:30;;;;;;;3.45;2.65;;;;;;;;;;1021563;29;20429;-75
2023/12/22 00:38:00;;;;;;;3.50;3.30;;;;;;;;;;1021812;28;20118;-75
2023/12/22 00:38:32;;;;;;;9.63;7.03;;;;;;;;;;1022657;29;20058;-75
2023/12/22 00:39:03;;;;;;;6.35;5.90;;;;;;;;;;1023822;28;20075;-75
2023/12/22 00:39:33;;;;;;;5.00;4.50;;;;;;;;;;1027660;28;20468;-75
2023/12/22 00:40:07;;;;;;;8.65;7.85;;;;;;;;;;1027533;28;20058;-75
2023/12/22 00:40:37;;;;;;;8.27;4.85;;;;;;;;;;1025863;28;20023;-75
2023/12/22 00:41:07;;;;;;;2.72;2.53;;;;;;;;;;1025973;28;20023;-75
2023/12/22 00:41:38;;;;;;;3.45;3.15;;;;;;;;;;1026094;28;20050;-75
2023/12/22 00:42:08;;;;;;;8.70;4.28;;;;;;;;;;1026013;28;20502;-75
2023/12/22 00:42:39;;;;;;;13.30;4.53;;;;;;;;;;1025923;28;20483;-75
2023/12/22 00:43:09;;;;;;;4.50;3.97;;;;;;;;;;1026686;28;20027;-75
2023/12/22 00:43:40;;;;;;;4.40;4.13;;;;;;;;;;1025630;28;20027;-75
2023/12/22 00:44:10;;;;;;;8.35;4.50;;;;;;;;;;1025132;28;20472;-75
2023/12/22 00:44:40;;;;;;;7.40;6.85;;;;;;;;;;1021087;29;20054;-75
2023/12/22 00:45:11;;;;;;;3.75;3.45;;;;;;;;;;1021085;29;20055;-75
2023/12/22 00:45:41;;;;;;;8.10;5.35;;;;;;;;;;1025400;28;20031;-75
2023/12/22 00:46:13;;;;;;;8.75;3.63;;;;;;;;;;1025755;28;20065;-75
2023/12/22 00:46:43;;;;;;;13.05;7.82;;;;;;;;;;1025940;28;20107;-75
2023/12/22 00:47:13;;;;;;;5.72;5.25;;;;;;;;;;1025734;28;20135;-75
2023/12/22 00:47:44;;;;;;;3.67;3.45;;;;;;;;;;1025732;28;20035;-75
2023/12/22 00:48:15;;;;;;;6.03;5.57;;;;;;;;;;1025781;28;20023;-75
2023/12/22 00:48:46;;;;;;;5.03;4.15;;;;;;;;;;1025882;28;20053;-75
2023/12/22 00:49:18;;;;;;;5.03;4.63;;;;;;;;;;1025990;28;20021;-75
2023/12/22 00:49:48;;;;;;;8.98;7.93;;;;;;;;;;1025987;28;20042;-75
2023/12/22 00:50:18;;;;;;;8.90;6.22;;;;;;;;;;1025718;28;20399;-75
2023/12/22 00:50:49;;;;;;;7.70;5.75;;;;;;;;;;1025853;28;20038;-75
2023/12/22 00:51:19;;;;;;;9.32;4.28;;;;;;;;;;1022879;28;20023;-75
2023/12/22 00:51:50;;;;;;;3.95;3.65;;;;;;;;;;1025866;28;20035;-75
2023/12/22 00:52:20;;;;;;;9.65;5.15;;;;;;;;;;1025700;28;20031;-75
2023/12/22 00:52:50;;;;;;;3.95;3.63;;;;;;;;;;1025779;28;20041;-75
2023/12/22 00:53:21;;;;;;;6.18;5.65;;;;;;;;;;1025605;28;20031;-75
2023/12/22 00:53:51;;;;;;;7.22;4.55;;;;;;;;;;1025861;28;20027;-75
2023/12/22 00:54:22;;;;;;;9.40;6.85;;;;;;;;;;1026064;28;20070;-75
2023/12/22 00:54:52;;;;;;;11.05;5.85;;;;;;;;;;1025865;28;20031;-75
2023/12/22 00:55:23;;;;;;;7.90;7.20;;;;;;;;;;1025564;28;20027;-75
2023/12/22 00:55:53;;;;;;;12.70;5.70;;;;;;;;;;1025307;28;20031;-75
2023/12/22 00:56:23;;;;;;;5.03;4.65;;;;;;;;;;1025300;28;20110;-75
2023/12/22 00:56:54;;;;;;;6.90;6.30;;;;;;;;;;1025448;28;20037;-75
2023/12/22 00:57:25;;;;;;;14.57;5.90;;;;;;;;;;1025652;28;20030;-76
2023/12/22 00:57:55;;;;;;;6.25;3.88;;;;;;;;;;1025626;28;20077;-76
2023/12/22 00:58:25;;;;;;;11.80;7.00;;;;;;;;;;1025847;28;20106;-75
2023/12/22 00:58:56;;;;;;;8.98;5.47;;;;;;;;;;1025583;28;20027;-74
2023/12/22 00:59:26;;;;;;;3.35;3.15;;;;;;;;;;1021519;29;20027;-74
2023/12/22 00:59:57;;;;;;;3.00;2.83;;;;;;;;;;1021567;29;20565;-74
2023/12/22 01:00:27;;;;;;;11.25;3.75;;;;;;;;;;1021366;29;20028;-74
2023/12/22 01:00:58;;;;;;;3.95;3.72;;;;;;;;;;1025541;28;20075;-74
2023/12/22 01:01:28;;;;;;;6.18;5.68;;;;;;;;;;1025678;28;20050;-75
2023/12/22 01:01:59;;;;;;;3.30;3.10;;;;;;;;;;1025299;28;20683;-75
2023/12/22 01:02:29;;;;;;;6.50;5.95;;;;;;;;;;1025524;28;20529;-75
2023/12/22 01:02:59;;;;;;;5.43;4.95;;;;;;;;;;1025742;28;20129;-74
2023/12/22 01:03:30;;;;;;;3.38;3.13;;;;;;;;;;1025405;28;20030;-75
2023/12/22 01:04:00;;;;;;;4.03;3.75;;;;;;;;;;1025946;28;20023;-75
2023/12/22 01:04:31;;;;;;;4.97;4.45;;;;;;;;;;1025385;28;20033;-74
2023/12/22 01:05:01;;;;;;;4.85;4.50;;;;;;;;;;1025746;28;20034;-75
2023/12/22 01:05:32;;;;;;;4.68;4.28;;;;;;;;;;1025653;28;20030;-75
2023/12/22 01:06:02;;;;;;;7.13;4.10;;;;;;;;;;1025484;28;20543;-75
2023/12/22 01:06:36;;;;;;;6.43;5.25;;;;;;;;;;1025826;28;20116;-75
2023/12/22 01:07:08;;;;;;;9.82;4.95;;;;;;;;;;1026017;28;20026;-75
2023/12/22 01:07:38;;;;;;;12.43;3.50;;;;;;;;;;1025869;28;20085;-75
2023/12/22 01:08:08;;;;;;;12.23;4.60;;;;;;;;;;1027372;28;20077;-75
2023/12/22 01:08:39;;;;;;;2.83;2.63;;;;;;;;;;1023456;29;20031;-75
2023/12/22 01:09:09;;;;;;;2.88;2.75;;;;;;;;;;1023704;29;20106;-75
2023/12/22 01:09:40;;;;;;;5.30;3.63;;;;;;;;;;1019569;29;20062;-75
2023/12/22 01:10:11;;;;;;;3.35;3.15;;;;;;;;;;1021666;28;20030;-75
2023/12/22 01:10:41;;;;;;;4.10;3.72;;;;;;;;;;1025491;28;20031;-75
2023/12/22 01:11:12;;;;;;;5.57;5.13;;;;;;;;;;1025640;28;20442;-75
2023/12/22 01:11:42;;;;;;;5.18;4.78;;;;;;;;;;1025374;28;20166;-75
2023/12/22 01:12:13;;;;;;;8.90;8.02;;;;;;;;;;1025609;28;20099;-75
2023/12/22 01:12:43;;;;;;;1.65;1.58;;;;;;;;;;1022627;28;20018;-75
2023/12/22 01:13:14;;;;;;;3.50;2.33;;;;;;;;;;1017884;28;20024;-75
2023/12/22 01:13:44;;;;;;;4.90;4.50;;;;;;;;;;1021306;29;20558;-75
2023/12/22 01:14:15;;;;;;;3.05;2.70;;;;;;;;;;1021385;29;20079;-75
2023/12/22 01:14:45;;;;;;;13.52;5.53;;;;;;;;;;1015587;29;20496;-75
2023/12/22 01:15:16;;;;;;;4.03;3.75;;;;;;;;;;1023232;28;20118;-75
2023/12/22 01:15:46;;;;;;;9.15;5.28;;;;;;;;;;1023783;28;20031;-75
2023/12/22 01:16:19;;;;;;;4.95;4.25;;;;;;;;;;1025407;28;20023;-74
2023/12/22 01:16:50;;;;;;;7.85;7.22;;;;;;;;;;1024907;28;20023;-75
2023/12/22 01:17:20;;;;;;;2.90;1.67;;;;;;;;;;1024767;28;20019;-75
2023/12/22 01:17:50;;;;;;;10.90;5.35;;;;;;;;;;1024934;28;20058;-75
2023/12/22 01:18:21;;;;;;;5.95;5.55;;;;;;;;;;1019208;29;20038;-75
2023/12/22 01:18:51;;;;;;;4.07;3.75;;;;;;;;;;1025044;28;20027;-75
2023/12/22 01:19:22;;;;;;;8.07;7.40;;;;;;;;;;1025346;28;20026;-75
2023/12/22 01:19:52;;;;;;;3.22;3.03;;;;;;;;;;1024440;28;20041;-75
2023/12/22 01:20:23;;;;;;;5.05;4.63;;;;;;;;;;1024264;28;20059;-75
2023/12/22 01:20:53;;;;;;;7.03;2.47;;;;;;;;;;1024847;28;20027;-76
2023/12/22 01:21:24;;;;;;;1.88;1.77;;;;;;;;;;1024334;28;20522;-75
2023/12/22 01:21:54;;;;;;;7.00;5.35;;;;;;;;;;1024944;28;20511;-77
2023/12/22 01:22:24;;;;;;;4.47;4.07;;;;;;;;;;1024249;28;20470;-78
2023/12/22 01:22:55;;;;;;;2.97;2.80;;;;;;;;;;1021213;29;20464;-75
2023/12/22 01:23:25;;;;;;;4.50;4.18;;;;;;;;;;1018287;29;20061;-76
2023/12/22 01:23:58;;;;;;;2.40;2.30;;;;;;;;;;1019024;29;20030;-75
2023/12/22 01:24:29;;;;;;;5.93;5.47;;;;;;;;;;1022702;28;20455;-75
2023/12/22 01:25:01;;;;;;;4.65;4.25;;;;;;;;;;1025863;28;20069;-74
2023/12/22 01:25:31;;;;;;;5.20;4.90;;;;;;;;;;1027405;28;20606;-77
2023/12/22 01:26:02;;;;;;;12.18;5.10;;;;;;;;;;1023036;28;20015;-77
2023/12/22 01:26:32;;;;;;;3.78;3.58;;;;;;;;;;1020136;29;20795;-75
2023/12/22 01:27:03;;;;;;;8.85;6.00;;;;;;;;;;1017667;29;20146;-76
2023/12/22 01:27:33;;;;;;;5.32;4.57;;;;;;;;;;1012342;29;20032;-76
2023/12/22 01:28:04;;;;;;;15.98;6.38;;;;;;;;;;1018410;29;20032;-75
2023/12/22 01:28:34;;;;;;;5.40;3.10;;;;;;;;;;1022468;28;20007;-76
2023/12/22 01:29:05;;;;;;;8.73;4.20;;;;;;;;;;1022733;28;20023;-76
2023/12/22 01:29:35;;;;;;;1.30;1.27;;;;;;;;;;1024056;28;20063;-75
2023/12/22 01:30:06;;;;;;;11.68;3.05;;;;;;;;;;1023578;28;20035;-77
2023/12/22 01:30:36;;;;;;;6.85;3.63;;;;;;;;;;1024486;28;20082;-77
2023/12/22 01:31:07;;;;;;;2.38;2.28;;;;;;;;;;1028682;28;20023;-76
2023/12/22 01:31:37;;;;;;;2.42;2.33;;;;;;;;;;1028214;28;20019;-78
2023/12/22 01:32:08;;;;;;;4.28;3.97;;;;;;;;;;1025750;28;20030;-76
2023/12/22 01:32:38;;;;;;;2.20;2.08;;;;;;;;;;1021632;28;20121;-74
2023/12/22 01:33:12;;;;;;;3.50;2.47;;;;;;;;;;1022800;28;20034;-76
2023/12/22 01:33:42;;;;;;;2.13;2.03;;;;;;;;;;1019551;28;20036;-74
2023/12/22 01:34:13;;;;;;;1.60;1.50;;;;;;;;;;1020488;29;20567;-77
2023/12/22 01:34:43;;;;;;;1.30;1.25;;;;;;;;;;1016906;29;20086;-75
2023/12/22 01:35:14;;;;;;;4.55;3.15;;;;;;;;;;1012894;29;20175;-76
2023/12/22 01:35:44;;;;;;;4.47;4.18;;;;;;;;;;1018918;29;20038;-76
2023/12/22 01:36:15;;;;;;;4.38;2.92;;;;;;;;;;1021945;28;20028;-77
2023/12/22 01:36:46;;;;;;;2.05;1.60;;;;;;;;;;1019254;29;20034;-76
2023/12/22 01:37:16;;;;;;;3.10;2.90;;;;;;;;;;1023882;28;20023;-76
2023/12/22 01:37:48;;;;;;;2.90;2.67;;;;;;;;;;1025073;28;20031;-74
2023/12/22 01:38:18;;;;;;;0.73;0.73;;;;;;;;;;1024330;28;20041;-75
2023/12/22 01:38:49;;;;;;;1.08;0.80;;;;;;;;;;1023713;28;20034;-77
2023/12/22 01:39:19;;;;;;;2.25;2.15;;;;;;;;;;1024084;28;20031;-77
2023/12/22 01:39:50;;;;;;;0.40;0.40;;;;;;;;;;1025929;28;20019;-76
2023/12/22 01:40:21;;;;;;;2.28;2.15;;;;;;;;;;1024551;28;20030;-75
2023/12/22 01:40:51;;;;;;;2.20;2.10;;;;;;;;;;1026887;28;20081;-77
2023/12/22 01:41:22;;;;;;;3.95;3.63;;;;;;;;;;1027998;28;20073;-78
2023/12/22 01:41:52;;;;;;;5.18;4.78;;;;;;;;;;1025864;28;20057;-77
2023/12/22 01:42:23;;;;;;;1.60;1.50;;;;;;;;;;1024480;28;20023;-76
2023/12/22 01:42:53;;;;;;;1.90;1.80;;;;;;;;;;1024833;28;20369;-77
2023/12/22 01:43:24;;;;;;;1.33;1.33;;;;;;;;;;1023798;28;20007;-78
2023/12/22 01:43:55;;;;;;;2.50;1.90;;;;;;;;;;1025446;28;20541;-78
2023/12/22 01:44:25;;;;;;;3.35;3.05;;;;;;;;;;1025472;28;20022;-78
2023/12/22 01:44:56;;;;;;;2.15;1.90;;;;;;;;;;1023358;28;20023;-75
2023/12/22 01:45:27;;;;;;;2.97;2.72;;;;;;;;;;1023585;28;20042;-77
2023/12/22 01:45:58;;;;;;;5.80;2.03;;;;;;;;;;1024043;28;20050;-78
2023/12/22 01:46:29;;;;;;;1.88;1.77;;;;;;;;;;1024346;28;20024;-76
2023/12/22 01:46:59;;;;;;;4.75;2.88;;;;;;;;;;1024921;28;20129;-78
2023/12/22 01:47:30;;;;;;;1.02;1.02;;;;;;;;;;1025127;28;20582;-77
2023/12/22 01:48:01;;;;;;;0.60;0.60;;;;;;;;;;1019913;29;20015;-82
2023/12/22 01:48:31;;;;;;;1.30;1.23;;;;;;;;;;1018353;29;20113;-78
2023/12/22 01:49:02;;;;;;;0.95;0.95;;;;;;;;;;1020765;29;20023;-77
2023/12/22 01:49:33;;;;;;;7.60;5.43;;;;;;;;;;1023691;28;20414;-76
2023/12/22 01:50:03;;;;;;;3.22;3.03;;;;;;;;;;1024938;28;20510;-77
2023/12/22 01:50:34;;;;;;;0.57;0.57;;;;;;;;;;1024324;28;20066;-77
2023/12/22 01:51:05;;;;;;;0.98;0.98;;;;;;;;;;1022685;28;20035;-78
2023/12/22 01:51:39;;;;;;;0.80;0.80;;;;;;;;;;1023493;28;20031;-78
2023/12/22 01:52:10;;;;;;;6.95;2.03;;;;;;;;;;1022854;28;20067;-77
2023/12/22 01:52:42;;;;;;;4.82;4.13;;;;;;;;;;1023096;28;20121;-77
2023/12/22 01:53:12;;;;;;;3.17;2.15;;;;;;;;;;1025190;28;20033;-77
2023/12/22 01:53:44;;;;;;;1.40;1.35;;;;;;;;;;1019455;29;20501;-77
2023/12/22 01:54:18;;;;;;;2.28;2.17;;;;;;;;;;1021409;29;20036;-79
2023/12/22 01:54:49;;;;;;;1.95;1.70;;;;;;;;;;1021348;28;20091;-76
2023/12/22 01:55:20;;;;;;;3.83;3.35;;;;;;;;;;1024476;28;20512;-77
2023/12/22 01:55:51;;;;;;;2.85;2.67;;;;;;;;;;1023627;28;20041;-76
2023/12/22 01:56:22;;;;;;;1.67;1.58;;;;;;;;;;1022010;29;20069;-76
2023/12/22 01:56:52;;;;;;;1.67;1.58;;;;;;;;;;1018102;29;20023;-78
2023/12/22 01:57:23;;;;;;;0.93;0.93;;;;;;;;;;1019197;29;20518;-77
2023/12/22 01:57:53;;;;;;;7.35;2.33;;;;;;;;;;1016940;29;20500;-76
2023/12/22 01:58:24;;;;;;;7.13;3.25;;;;;;;;;;1019845;29;20046;-78
2023/12/22 01:58:57;;;;;;;3.40;3.08;;;;;;;;;;1022570;28;20053;-76
2023/12/22 01:59:30;;;;;;;1.60;1.50;;;;;;;;;;1025475;28;20477;-75
2023/12/22 02:00:01;;;;;;;0.90;0.90;;;;;;;;;;1028843;28;20026;-74
2023/12/22 02:00:32;;;;;;;2.05;1.95;;;;;;;;;;1028475;28;20128;-75
2023/12/22 02:01:03;;;;;;;2.75;1.67;;;;;;;;;;1024674;28;20352;-76
2023/12/22 02:01:34;;;;;;;2.85;1.92;;;;;;;;;;1020601;29;20046;-78
2023/12/22 02:02:04;;;;;;;3.00;2.63;;;;;;;;;;1020599;29;20058;-77
2023/12/22 02:02:35;;;;;;;1.40;1.33;;;;;;;;;;1021064;28;20655;-74
2023/12/22 02:03:06;;;;;;;1.30;1.23;;;;;;;;;;1024827;28;20027;-77
2023/12/22 02:03:36;;;;;;;3.33;2.78;;;;;;;;;;1027411;28;20168;-78
2023/12/22 02:04:07;;;;;;;38.67;3.40;;;;;;;;;;1024972;28;20088;-74
2023/12/22 02:04:37;;;;;;;2.78;2.58;;;;;;;;;;1025108;28;20027;-76
2023/12/22 02:05:11;;;;;;;0.60;0.60;;;;;;;;;;1023890;28;20090;-75
2023/12/22 02:05:42;;;;;;;1.50;1.42;;;;;;;;;;1023296;28;20034;-75
2023/12/22 02:06:13;;;;;;;4.13;2.05;;;;;;;;;;1022835;28;20508;-78
2023/12/22 02:06:44;;;;;;;0.60;0.60;;;;;;;;;;1025334;28;20038;-76
2023/12/22 02:07:15;;;;;;;2.85;2.65;;;;;;;;;;1020479;29;20027;-76
2023/12/22 02:07:45;;;;;;;0.95;0.95;;;;;;;;;;1020790;29;20070;-76
2023/12/22 02:08:18;;;;;;;3.00;2.72;;;;;;;;;;1020853;28;20081;-75
2023/12/22 02:08:48;;;;;;;8.35;2.25;;;;;;;;;;1023327;28;20078;-76
2023/12/22 02:09:19;;;;;;;0.68;0.68;;;;;;;;;;1022603;28;20070;-78
2023/12/22 02:09:49;;;;;;;1.48;0.82;;;;;;;;;;1018317;29;20130;-76
2023/12/22 02:10:20;;;;;;;0.47;0.47;;;;;;;;;;1020044;29;20050;-75
2023/12/22 02:10:50;;;;;;;3.95;3.65;;;;;;;;;;1021292;28;20025;-75
2023/12/22 02:11:21;;;;;;;2.78;1.17;;;;;;;;;;1023200;28;20034;-74
2023/12/22 02:11:51;;;;;;;2.22;2.08;;;;;;;;;;1024389;28;20030;-75
2023/12/22 02:12:22;;;;;;;4.28;3.97;;;;;;;;;;1024245;28;20034;-76
2023/12/22 02:12:52;;;;;;;0.82;0.82;;;;;;;;;;1023870;28;20043;-76
2023/12/22 02:13:26;;;;;;;0.80;0.80;;;;;;;;;;1024067;28;20015;-76
2023/12/22 02:13:57;;;;;;;0.82;0.82;;;;;;;;;;1022568;28;20387;-77
2023/12/22 02:14:27;;;;;;;1.02;0.93;;;;;;;;;;1021731;28;20031;-76
2023/12/22 02:14:58;;;;;;;0.40;0.40;;;;;;;;;;1021913;28;20031;-77
2023/12/22 02:15:30;;;;;;;0.85;0.85;;;;;;;;;;1023189;28;20498;-77
2023/12/22 02:16:06;;;;;;;0.82;0.82;;;;;;;;;;1023735;28;20062;-78
2023/12/22 02:16:40;;;;;;;2.53;0.95;;;;;;;;;;1024156;28;20034;-76
2023/12/22 02:17:13;;;;;;;3.90;1.45;;;;;;;;;;1024401;28;20407;-78
2023/12/22 02:17:59;;;;;;;0.50;0.50;;;;;;;;;;1019586;29;20957;-78
2023/12/22 02:18:33;;;;;;;5.13;3.15;;;;;;;;;;1022232;28;20054;-76
2023/12/22 02:19:27;;;;;;;1.48;1.17;;;;;;;;;;1023868;28;20125;-77
2023/12/22 02:19:58;;;;;;;2.65;2.50;;;;;;;;;;1024347;28;20059;-76
2023/12/22 02:20:30;;;;;;;0.90;0.90;;;;;;;;;;1025931;28;20033;-75
2023/12/22 02:21:00;;;;;;;1.40;0.88;;;;;;;;;;1024114;28;20053;-77
2023/12/22 02:21:31;;;;;;;1.75;1.65;;;;;;;;;;1016074;28;20504;-77
2023/12/22 02:22:05;;;;;;;0.30;0.30;;;;;;;;;;1017628;29;20024;-75
2023/12/22 02:22:36;;;;;;;2.05;1.05;;;;;;;;;;1016778;29;20034;-77
2023/12/22 02:23:06;;;;;;;1.73;0.90;;;;;;;;;;1018240;29;20039;-76
2023/12/22 02:23:37;;;;;;;1.02;1.02;;;;;;;;;;1022242;29;20030;-76
2023/12/22 02:24:07;;;;;;;0.93;0.80;;;;;;;;;;1016720;29;20142;-76
2023/12/22 02:24:41;;;;;;;1.13;1.13;;;;;;;;;;1021088;29;20545;-77
2023/12/22 02:25:11;;;;;;;2.22;1.33;;;;;;;;;;1022238;29;20059;-76
2023/12/22 02:25:42;;;;;;;1.77;1.67;;;;;;;;;;1024122;28;20027;-76
2023/12/22 02:26:20;;;;;;;4.82;4.18;;;;;;;;;;1028043;28;20471;-77
2023/12/22 02:26:51;;;;;;;0.65;0.65;;;;;;;;;;1021898;28;20031;-77
2023/12/22 02:27:37;;;;;;;0.40;0.40;;;;;;;;;;1022863;28;20537;-78
2023/12/22 02:28:09;;;;;;;0.52;0.52;;;;;;;;;;1014581;29;20020;-76
2023/12/22 02:28:44;;;;;;;1.13;1.13;;;;;;;;;;1013292;29;20028;-77
2023/12/22 02:29:15;;;;;;;2.15;1.92;;;;;;;;;;1019633;29;20117;-76
2023/12/22 02:29:54;;;;;;;2.70;1.40;;;;;;;;;;1020734;28;20027;-77
2023/12/22 02:30:33;;;;;;;9.32;2.20;;;;;;;;;;1025072;28;20512;-76
2023/12/22 02:31:08;;;;;;;2.20;2.00;;;;;;;;;;1028924;28;20041;-77
2023/12/22 02:31:44;;;;;;;1.25;1.10;;;;;;;;;;1027029;28;20030;-75
2023/12/22 02:32:35;;;;;;;2.75;2.55;;;;;;;;;;1023894;28;20394;-77
2023/12/22 02:33:07;;;;;;;0.40;0.40;;;;;;;;;;1024197;28;20094;-76
2023/12/22 02:33:39;;;;;;;1.42;1.38;;;;;;;;;;1025674;28;20113;-76
2023/12/22 02:34:13;;;;;;;3.35;1.65;;;;;;;;;;1021510;29;20393;-76
2023/12/22 02:34:44;;;;;;;0.88;0.88;;;;;;;;;;1020723;29;20729;-76
2023/12/22 02:35:18;;;;;;;5.60;2.45;;;;;;;;;;1020280;28;20027;-75
2023/12/22 02:35:49;;;;;;;4.30;3.35;;;;;;;;;;1019935;28;20057;-78
2023/12/22 02:36:20;;;;;;;2.35;1.67;;;;;;;;;;1018967;29;20572;-76
2023/12/22 02:36:51;;;;;;;0.98;0.98;;;;;;;;;;1020670;29;21150;-76
2023/12/22 02:37:22;;;;;;;2.65;2.30;;;;;;;;;;1021638;29;20475;-75
2023/12/22 02:37:54;;;;;;;0.60;0.60;;;;;;;;;;1022198;29;20047;-77
2023/12/22 02:38:25;;;;;;;0.82;0.82;;;;;;;;;;1020520;29;20038;-75
2023/12/22 02:38:59;;;;;;;0.88;0.88;;;;;;;;;;1020198;29;20114;-77
2023/12/22 02:39:30;;;;;;;0.25;0.25;;;;;;;;;;1014414;29;20481;-75
2023/12/22 02:40:01;;;;;;;1.73;1.63;;;;;;;;;;1019543;28;20126;-76
2023/12/22 02:40:33;;;;;;;2.50;1.40;;;;;;;;;;1018759;29;20028;-76
2023/12/22 02:41:04;;;;;;;1.95;1.20;;;;;;;;;;1019953;28;20688;-75
2023/12/22 02:41:34;;;;;;;1.27;1.27;;;;;;;;;;1049483;23;20016;-77
2023/12/22 02:42:05;;;;;;;11.68;1.30;;;;;;;;;;1033050;28;20065;-77
2023/12/22 02:42:37;;;;;;;0.85;0.77;;;;;;;;;;1035812;28;20543;-77
2023/12/22 02:43:08;;;;;;;0.93;0.93;;;;;;;;;;1034785;28;20031;-77
2023/12/22 02:43:39;;;;;;;1.30;1.20;;;;;;;;;;1037847;28;20373;-76
2023/12/22 02:44:09;;;;;;;0.55;0.55;;;;;;;;;;1029770;28;20084;-76
2023/12/22 02:44:40;;;;;;;0.57;0.25;;;;;;;;;;1026677;28;20043;-77
2023/12/22 02:45:14;;;;;;;3.80;1.90;;;;;;;;;;1028828;28;20050;-79
2023/12/22 02:45:49;;;;;;;0.47;0.47;;;;;;;;;;1024773;28;20081;-78
2023/12/22 02:46:20;;;;;;;1.65;1.55;;;;;;;;;;1020532;28;20102;-78
2023/12/22 02:46:53;;;;;;;0.50;0.50;;;;;;;;;;1020351;29;20298;-76
2023/12/22 02:47:24;;;;;;;2.30;1.25;;;;;;;;;;1018872;29;20019;-77
2023/12/22 02:47:58;;;;;;;7.43;1.10;;;;;;;;;;1017779;29;20118;-78
2023/12/22 02:48:29;;;;;;;0.35;0.35;;;;;;;;;;1019679;28;20031;-76
2023/12/22 02:48:59;;;;;;;1.80;1.70;;;;;;;;;;1019933;28;20538;-75
2023/12/22 02:49:30;;;;;;;1.13;1.13;;;;;;;;;;1020627;28;20023;-74
2023/12/22 02:50:00;;;;;;;3.60;3.22;;;;;;;;;;1021462;29;20058;-75
2023/12/22 02:50:31;;;;;;;0.98;0.95;;;;;;;;;;1018090;28;20051;-76
2023/12/22 02:51:01;;;;;;;1.77;1.65;;;;;;;;;;1021495;28;20033;-76
2023/12/22 02:51:35;;;;;;;1.48;1.38;;;;;;;;;;1027511;28;20014;-78
2023/12/22 02:52:05;;;;;;;1.55;0.90;;;;;;;;;;1030194;28;20038;-78
2023/12/22 02:52:36;;;;;;;4.15;2.83;;;;;;;;;;1025464;28;20132;-75
2023/12/22 02:53:06;;;;;;;1.90;1.80;;;;;;;;;;1025451;28;20057;-79
2023/12/22 02:53:37;;;;;;;1.50;1.40;;;;;;;;;;1028774;28;20525;-77
2023/12/22 02:54:07;;;;;;;0.40;0.40;;;;;;;;;;1028054;28;20041;-78
2023/12/22 02:54:39;;;;;;;0.73;0.57;;;;;;;;;;1023863;28;20023;-77
2023/12/22 02:55:12;;;;;;;1.50;1.05;;;;;;;;;;1023460;28;20086;-77
2023/12/22 02:55:43;;;;;;;0.60;0.60;;;;;;;;;;1020454;28;20059;-74
2023/12/22 02:56:13;;;;;;;2.13;1.77;;;;;;;;;;1020979;28;20027;-74
2023/12/22 02:56:45;;;;;;;0.45;0.45;;;;;;;;;;1024343;28;20065;-76
2023/12/22 02:57:16;;;;;;;2.00;1.85;;;;;;;;;;1023309;28;20026;-74
2023/12/22 02:57:47;;;;;;;0.88;0.88;;;;;;;;;;1026944;28;20034;-75
2023/12/22 02:58:18;;;;;;;2.47;1.52;;;;;;;;;;1024214;28;20026;-74
2023/12/22 02:58:48;;;;;;;2.15;1.33;;;;;;;;;;1024977;28;20056;-74
2023/12/22 02:59:19;;;;;;;1.20;1.10;;;;;;;;;;1026022;28;20462;-74
2023/12/22 02:59:49;;;;;;;7.43;4.82;;;;;;;;;;1024563;28;20357;-75
2023/12/22 03:00:20;;;;;;;0.70;0.70;;;;;;;;;;1019119;29;20122;-74
2023/12/22 03:00:54;;;;;;;0.40;0.40;;;;;;;;;;1017431;29;20027;-73
2023/12/22 03:01:25;;;;;;;0.38;0.38;;;;;;;;;;1020721;28;20095;-74
2023/12/22 03:01:57;;;;;;;6.00;2.60;;;;;;;;;;1024024;28;20023;-76
2023/12/22 03:02:28;;;;;;;3.00;0.98;;;;;;;;;;1024373;28;20018;-77
2023/12/22 03:02:58;;;;;;;2.13;1.95;;;;;;;;;;1023358;28;20035;-77
2023/12/22 03:03:30;;;;;;;1.98;1.88;;;;;;;;;;1022732;28;20058;-76
2023/12/22 03:04:00;;;;;;;2.10;1.95;;;;;;;;;;1013438;28;20094;-73
2023/12/22 03:04:31;;;;;;;0.80;0.77;;;;;;;;;;1016704;28;20027;-75
2023/12/22 03:05:02;;;;;;;2.10;0.93;;;;;;;;;;1017438;28;20412;-75
2023/12/22 03:05:33;;;;;;;0.88;0.88;;;;;;;;;;1023289;28;20109;-75
2023/12/22 03:06:03;;;;;;;0.55;0.55;;;;;;;;;;1027355;28;20050;-75
2023/12/22 03:06:34;;;;;;;0.20;0.20;;;;;;;;;;1027540;28;20041;-74
2023/12/22 03:07:04;;;;;;;0.73;0.73;;;;;;;;;;1023451;28;20174;-76